createdAt,value
2019-05-09T00:02:50.197Z,100.00
2019-05-09T00:05:18.882Z,99.96
2019-05-09T00:07:47.675Z,100.00
2019-05-09T00:10:16.914Z,100.00
2019-05-09T00:12:46.207Z,100.00
2019-05-09T00:15:15.604Z,100.00
2019-05-09T00:17:44.522Z,100.00
2019-05-09T00:20:45.644Z,100.00
2019-05-09T00:23:14.465Z,100.00
2019-05-09T00:25:43.415Z,100.00
2019-05-09T00:28:13.470Z,100.00
2019-05-09T00:31:04.484Z,100.00
2019-05-09T00:33:34.333Z,100.00
2019-05-09T00:36:04.130Z,100.00
2019-05-09T00:38:53.164Z,100.00
2019-05-09T00:41:23.842Z,100.00
2019-05-09T00:43:59.342Z,100.00
2019-05-09T00:46:37.825Z,100.00
2019-05-09T00:49:25.773Z,100.00
2019-05-09T00:51:54.450Z,100.00
2019-05-09T00:54:24.085Z,100.00
2019-05-09T00:56:54.020Z,100.00
2019-05-09T00:59:24.130Z,100.00
2019-05-09T01:01:54.334Z,100.00
2019-05-09T01:04:24.126Z,100.00
2019-05-09T01:06:53.977Z,100.00
2019-05-09T01:09:24.168Z,100.00
2019-05-09T01:11:53.536Z,100.00
2019-05-09T01:14:23.479Z,100.00
2019-05-09T01:16:53.465Z,100.00
2019-05-09T01:19:23.320Z,100.00
2019-05-09T01:21:54.277Z,100.00
2019-05-09T01:24:23.328Z,100.00
2019-05-09T01:26:54.199Z,100.00
2019-05-09T01:29:23.169Z,100.00
2019-05-09T01:31:54.152Z,100.00
2019-05-09T01:34:26.422Z,100.00
2019-05-09T01:37:08.749Z,100.00
2019-05-09T01:39:37.247Z,100.00
2019-05-09T01:42:06.585Z,100.00
2019-05-09T01:44:35.189Z,100.00
2019-05-09T01:47:04.207Z,100.00
2019-05-09T01:49:34.231Z,100.00
2019-05-09T01:52:03.547Z,100.00
2019-05-09T01:54:34.521Z,100.00
2019-05-09T01:57:03.612Z,100.00
2019-05-09T01:59:33.973Z,100.00
2019-05-09T02:02:08.071Z,100.00
2019-05-09T02:04:33.675Z,100.00
2019-05-09T02:07:04.180Z,100.00
2019-05-09T02:09:34.313Z,100.00
2019-05-09T02:12:03.989Z,100.00
2019-05-09T02:14:54.139Z,100.00
2019-05-09T02:17:55.855Z,100.00
2019-05-09T02:20:13.744Z,100.00
2019-05-09T02:22:43.504Z,100.00
2019-05-09T02:25:13.655Z,100.00
2019-05-09T02:27:43.641Z,100.00
2019-05-09T02:30:15.345Z,100.00
2019-05-09T02:32:45.231Z,100.00
2019-05-09T02:35:14.362Z,100.00
2019-05-09T02:37:42.991Z,100.00
2019-05-09T02:40:11.904Z,100.00
2019-05-09T02:42:40.697Z,100.00
2019-05-09T02:45:09.466Z,100.00
2019-05-09T02:47:38.763Z,100.00
2019-05-09T02:50:09.472Z,100.00
2019-05-09T02:52:39.626Z,100.00
2019-05-09T02:55:10.193Z,100.00
2019-05-09T02:57:39.336Z,100.00
2019-05-09T03:00:24.585Z,100.00
2019-05-09T03:03:12.844Z,100.00
2019-05-09T03:05:41.675Z,100.00
2019-05-09T03:08:10.366Z,100.00
2019-05-09T03:10:38.991Z,100.00
2019-05-09T03:13:09.112Z,100.00
2019-05-09T03:15:39.475Z,100.00
2019-05-09T03:18:09.169Z,100.00
2019-05-09T03:20:54.306Z,100.00
2019-05-09T03:23:22.963Z,100.00
2019-05-09T03:25:51.649Z,100.00
2019-05-09T03:28:40.527Z,100.00
2019-05-09T03:31:10.245Z,100.00
2019-05-09T03:33:40.474Z,100.00
2019-05-09T03:36:09.509Z,100.00
2019-05-09T03:38:38.008Z,100.00
2019-05-09T03:41:08.507Z,100.00
2019-05-09T03:43:37.847Z,100.00
2019-05-09T03:46:14.981Z,100.00
2019-05-09T03:48:47.869Z,100.00
2019-05-09T03:51:18.377Z,100.00
2019-05-09T03:53:48.444Z,100.00
2019-05-09T03:56:20.919Z,100.00
2019-05-09T03:58:49.510Z,100.00
2019-05-09T04:01:18.122Z,100.00
2019-05-09T04:03:48.145Z,100.00
2019-05-09T04:06:18.425Z,100.00
2019-05-09T04:08:48.161Z,100.00
2019-05-09T04:11:18.518Z,100.00
2019-05-09T04:13:58.253Z,100.00
2019-05-09T04:16:27.717Z,100.00
2019-05-09T04:18:58.086Z,100.00
2019-05-09T04:21:28.088Z,100.00
2019-05-09T04:23:58.467Z,100.00
2019-05-09T04:26:45.423Z,100.00
2019-05-09T04:29:14.042Z,100.00
2019-05-09T04:31:42.686Z,100.00
2019-05-09T04:34:11.411Z,100.00
2019-05-09T04:36:40.061Z,100.00
2019-05-09T04:39:12.665Z,100.00
2019-05-09T04:41:41.424Z,100.00
2019-05-09T04:44:19.193Z,100.00
2019-05-09T04:46:44.993Z,100.00
2019-05-09T04:49:13.607Z,100.00
2019-05-09T04:51:42.117Z,99.07
2019-05-09T04:54:10.834Z,98.36
2019-05-09T04:56:40.754Z,98.59
2019-05-09T04:59:09.339Z,98.20
2019-05-09T05:01:57.947Z,98.38
2019-05-09T05:04:28.223Z,97.13
2019-05-09T05:06:58.556Z,96.10
2019-05-09T05:09:27.842Z,96.30
2019-05-09T05:11:57.948Z,94.21
2019-05-09T05:14:29.780Z,94.10
2019-05-09T05:17:07.328Z,95.04
2019-05-09T05:19:31.487Z,94.27
2019-05-09T05:22:08.399Z,94.43
2019-05-09T05:24:49.968Z,94.15
2019-05-09T05:27:19.013Z,92.26
2019-05-09T05:29:47.797Z,91.43
2019-05-09T05:32:23.942Z,91.38
2019-05-09T05:35:07.580Z,91.15
2019-05-09T05:37:38.441Z,91.37
2019-05-09T05:40:07.922Z,90.57
2019-05-09T05:42:38.813Z,89.65
2019-05-09T05:45:07.692Z,87.37
2019-05-09T05:47:57.859Z,85.41
2019-05-09T05:50:28.113Z,85.37
2019-05-09T05:52:57.755Z,85.09
2019-05-09T05:55:27.545Z,85.46
2019-05-09T05:57:57.909Z,88.05
2019-05-09T06:00:28.548Z,84.46
2019-05-09T06:02:58.581Z,84.27
2019-05-09T06:05:27.892Z,83.85
2019-05-09T06:07:57.661Z,84.27
2019-05-09T06:10:28.794Z,83.71
2019-05-09T06:12:57.643Z,83.66
2019-05-09T06:15:28.609Z,83.67
2019-05-09T06:17:57.891Z,84.04
2019-05-09T06:20:28.090Z,83.88
2019-05-09T06:22:58.194Z,83.99
2019-05-09T06:25:30.453Z,84.06
2019-05-09T06:27:58.449Z,83.06
2019-05-09T06:30:28.564Z,83.48
2019-05-09T06:32:58.307Z,83.30
2019-05-09T06:35:28.241Z,84.54
2019-05-09T06:37:58.708Z,83.52
2019-05-09T06:40:28.787Z,85.77
2019-05-09T06:42:59.403Z,86.12
2019-05-09T06:45:39.213Z,86.79
2019-05-09T06:48:07.608Z,85.72
2019-05-09T06:50:37.863Z,85.21
2019-05-09T06:53:08.071Z,85.02
2019-05-09T06:55:38.569Z,85.71
2019-05-09T06:58:27.575Z,86.22
2019-05-09T07:01:07.742Z,85.93
2019-05-09T07:03:37.529Z,85.52
2019-05-09T07:06:13.423Z,86.14
2019-05-09T07:08:59.016Z,86.07
2019-05-09T07:11:27.677Z,86.54
2019-05-09T07:13:57.890Z,85.21
2019-05-09T07:16:27.641Z,86.56
2019-05-09T07:18:57.927Z,85.90
2019-05-09T07:21:48.384Z,86.06
2019-05-09T07:24:18.495Z,85.95
2019-05-09T07:26:47.863Z,85.47
2019-05-09T07:29:17.870Z,85.86
2019-05-09T07:31:51.670Z,85.37
2019-05-09T07:34:23.533Z,85.11
2019-05-09T07:36:51.960Z,84.21
2019-05-09T07:39:20.717Z,84.65
2019-05-09T07:41:49.810Z,83.82
2019-05-09T07:44:18.515Z,82.79
2019-05-09T07:46:52.767Z,82.34
2019-05-09T07:49:21.444Z,83.26
2019-05-09T07:51:50.049Z,81.72
2019-05-09T07:54:25.043Z,80.27
2019-05-09T07:56:49.369Z,81.41
2019-05-09T07:59:18.183Z,79.87
2019-05-09T08:01:48.716Z,80.44
2019-05-09T08:04:18.281Z,80.23
2019-05-09T08:06:48.666Z,80.23
2019-05-09T08:09:18.681Z,80.81
2019-05-09T08:11:48.299Z,79.83
2019-05-09T08:14:17.723Z,79.31
2019-05-09T08:16:47.539Z,77.90
2019-05-09T08:19:18.069Z,78.43
2019-05-09T08:21:47.985Z,78.46
2019-05-09T08:24:18.317Z,77.38
2019-05-09T08:26:47.833Z,76.63
2019-05-09T08:29:17.839Z,76.92
2019-05-09T08:31:48.546Z,77.92
2019-05-09T08:34:18.720Z,77.09
2019-05-09T08:36:47.883Z,77.35
2019-05-09T08:39:20.166Z,76.00
2019-05-09T08:41:48.531Z,76.57
2019-05-09T08:44:18.707Z,76.60
2019-05-09T08:46:48.096Z,78.02
2019-05-09T08:49:20.295Z,75.14
2019-05-09T08:52:09.019Z,73.29
2019-05-09T08:55:00.521Z,72.81
2019-05-09T08:57:29.144Z,85.15
2019-05-09T08:59:58.909Z,73.68
2019-05-09T09:02:28.402Z,72.16
2019-05-09T09:04:58.233Z,72.24
2019-05-09T09:07:29.772Z,71.96
2019-05-09T09:09:57.864Z,71.51
2019-05-09T09:12:33.802Z,70.57
2019-05-09T09:14:58.617Z,68.94
2019-05-09T09:17:28.006Z,70.71
2019-05-09T09:19:58.260Z,69.98
2019-05-09T09:22:28.323Z,69.83
2019-05-09T09:24:58.664Z,69.33
2019-05-09T09:27:28.002Z,67.99
2019-05-09T09:29:58.724Z,67.28
2019-05-09T09:32:28.193Z,67.17
2019-05-09T09:34:58.756Z,66.78
2019-05-09T09:37:32.721Z,65.75
2019-05-09T09:39:58.348Z,65.51
2019-05-09T09:42:28.343Z,66.95
2019-05-09T09:44:58.519Z,65.85
2019-05-09T09:47:28.591Z,65.36
2019-05-09T09:49:59.548Z,66.56
2019-05-09T09:52:29.769Z,66.01
2019-05-09T09:54:58.707Z,67.01
2019-05-09T09:57:28.870Z,65.09
2019-05-09T10:00:14.124Z,65.49
2019-05-09T10:02:42.843Z,63.93
2019-05-09T10:05:11.371Z,65.19
2019-05-09T10:07:39.966Z,65.24
2019-05-09T10:10:10.356Z,64.68
2019-05-09T10:12:44.372Z,65.93
2019-05-09T10:15:28.049Z,65.66
2019-05-09T10:18:18.306Z,64.36
2019-05-09T10:20:52.439Z,62.27
2019-05-09T10:23:21.883Z,63.59
2019-05-09T10:25:50.763Z,62.01
2019-05-09T10:28:21.501Z,62.96
2019-05-09T10:30:49.868Z,60.72
2019-05-09T10:33:18.459Z,62.60
2019-05-09T10:35:47.868Z,66.34
2019-05-09T10:38:18.421Z,63.57
2019-05-09T10:40:48.560Z,62.81
2019-05-09T10:43:39.070Z,61.57
2019-05-09T10:46:48.081Z,61.30
2019-05-09T10:49:02.992Z,61.08
2019-05-09T10:51:31.855Z,61.14
2019-05-09T10:54:00.418Z,61.00
2019-05-09T10:56:29.118Z,60.77
2019-05-09T10:58:58.462Z,57.59
2019-05-09T11:01:29.462Z,58.07
2019-05-09T11:03:58.949Z,56.37
2019-05-09T11:06:28.843Z,58.34
2019-05-09T11:08:58.490Z,58.30
2019-05-09T11:11:28.515Z,58.28
2019-05-09T11:13:58.642Z,58.76
2019-05-09T11:16:41.948Z,58.36
2019-05-09T11:18:58.707Z,58.61
2019-05-09T11:21:28.854Z,58.60
2019-05-09T11:23:58.631Z,58.31
2019-05-09T11:26:28.451Z,57.30
2019-05-09T11:28:58.825Z,58.19
2019-05-09T11:31:29.591Z,59.88
2019-05-09T11:33:58.252Z,59.55
2019-05-09T11:36:26.848Z,59.07
2019-05-09T11:38:59.827Z,59.36
2019-05-09T11:41:29.145Z,59.06
2019-05-09T11:43:59.091Z,57.78
2019-05-09T11:46:28.877Z,59.95
2019-05-09T11:48:58.526Z,57.66
2019-05-09T11:51:29.002Z,58.38
2019-05-09T11:53:58.330Z,58.91
2019-05-09T11:56:26.961Z,58.43
2019-05-09T11:58:57.735Z,58.73
2019-05-09T12:01:26.011Z,57.14
2019-05-09T12:03:54.710Z,58.80
2019-05-09T12:06:23.407Z,60.76
2019-05-09T12:08:52.135Z,61.72
2019-05-09T12:11:20.784Z,62.55
2019-05-09T12:13:49.343Z,62.91
2019-05-09T12:16:18.713Z,60.37
2019-05-09T12:18:48.819Z,60.99
2019-05-09T12:21:19.027Z,60.68
2019-05-09T12:23:49.105Z,60.62
2019-05-09T12:26:18.594Z,61.66
2019-05-09T12:28:48.385Z,61.24
2019-05-09T12:31:18.091Z,59.57
2019-05-09T12:33:48.250Z,61.17
2019-05-09T12:36:21.275Z,59.75
2019-05-09T12:38:50.305Z,60.14
2019-05-09T12:41:19.402Z,60.35
2019-05-09T12:43:48.725Z,60.61
2019-05-09T12:46:18.002Z,59.04
2019-05-09T12:48:48.157Z,58.59
2019-05-09T12:51:18.410Z,58.70
2019-05-09T12:53:48.496Z,59.79
2019-05-09T12:56:18.734Z,59.19
2019-05-09T12:58:48.049Z,59.52
2019-05-09T13:01:18.718Z,60.05
2019-05-09T13:03:48.392Z,60.62
2019-05-09T13:06:19.939Z,61.56
2019-05-09T13:08:48.467Z,61.84
2019-05-09T13:11:18.758Z,61.11
2019-05-09T13:13:48.094Z,60.91
2019-05-09T13:16:45.484Z,62.39
2019-05-09T13:19:09.584Z,63.61
2019-05-09T13:21:39.173Z,61.49
2019-05-09T13:24:08.744Z,62.24
2019-05-09T13:26:38.559Z,61.73
2019-05-09T13:29:08.235Z,61.17
2019-05-09T13:31:39.164Z,62.69
2019-05-09T13:34:08.313Z,61.54
2019-05-09T13:36:37.158Z,64.92
2019-05-09T13:39:08.793Z,63.92
2019-05-09T13:41:38.769Z,65.21
2019-05-09T13:44:13.260Z,65.91
2019-05-09T13:46:41.098Z,65.88
2019-05-09T13:49:14.864Z,66.66
2019-05-09T13:51:50.097Z,66.59
2019-05-09T13:54:11.845Z,66.52
2019-05-09T13:56:40.765Z,66.80
2019-05-09T13:59:09.605Z,67.83
2019-05-09T14:01:38.368Z,67.90
2019-05-09T14:04:07.903Z,68.98
2019-05-09T14:06:38.672Z,68.02
2019-05-09T14:09:10.129Z,68.72
2019-05-09T14:11:38.904Z,69.87
2019-05-09T14:14:07.604Z,69.84
2019-05-09T14:16:38.966Z,72.19
2019-05-09T14:19:28.546Z,69.94
2019-05-09T14:21:37.802Z,70.02
2019-05-09T14:40:20.014Z,72.90
2019-05-09T14:43:06.218Z,75.05
2019-05-09T14:45:38.070Z,73.16
2019-05-09T14:48:08.012Z,73.21
2019-05-09T14:50:38.145Z,73.37
2019-05-09T14:53:08.647Z,73.35
2019-05-09T14:55:39.157Z,74.24
2019-05-09T14:58:10.015Z,73.09
2019-05-09T15:00:38.760Z,72.94
2019-05-09T15:03:08.223Z,74.39
2019-05-09T15:05:37.891Z,73.17
2019-05-09T15:08:09.658Z,74.19
2019-05-09T15:10:38.558Z,74.42
2019-05-09T15:13:07.941Z,75.05
2019-05-09T15:15:38.042Z,73.28
2019-05-09T15:18:08.101Z,75.25
2019-05-09T15:20:38.103Z,73.95
2019-05-09T15:23:08.562Z,74.08
2019-05-09T15:25:38.016Z,73.91
2019-05-09T15:28:08.199Z,74.29
2019-05-09T15:30:38.574Z,74.08
2019-05-09T15:33:08.404Z,74.78
2019-05-09T15:35:39.139Z,75.80
2019-05-09T15:38:08.817Z,75.43
2019-05-09T15:40:38.699Z,75.57
2019-05-09T15:43:08.463Z,75.16
2019-05-09T15:45:45.515Z,75.44
2019-05-09T15:48:14.247Z,76.24
2019-05-09T15:50:43.062Z,75.16
2019-05-09T15:53:11.914Z,76.30
2019-05-09T15:55:41.498Z,76.57
2019-05-09T15:58:10.581Z,74.98
2019-05-09T16:00:39.733Z,74.84
2019-05-09T16:03:09.119Z,75.05
2019-05-09T16:05:38.690Z,75.47
2019-05-09T16:08:09.155Z,75.32
2019-05-09T16:10:38.814Z,75.65
2019-05-09T16:13:08.283Z,76.65
2019-05-09T16:15:38.211Z,77.74
2019-05-09T16:18:08.616Z,78.46
2019-05-09T16:20:41.057Z,79.32
2019-05-09T16:23:08.486Z,79.08
2019-05-09T16:25:38.689Z,79.31
2019-05-09T16:28:08.207Z,80.57
2019-05-09T16:30:38.247Z,81.93
2019-05-09T16:33:08.163Z,83.47
2019-05-09T16:35:38.162Z,85.81
2019-05-09T16:38:10.739Z,87.11
2019-05-09T16:40:38.706Z,89.56
2019-05-09T16:43:09.035Z,90.24
2019-05-09T16:45:38.227Z,90.24
2019-05-09T16:48:11.366Z,91.34
2019-05-09T16:50:41.867Z,90.78
2019-05-09T16:53:09.614Z,91.30
2019-05-09T16:55:40.187Z,91.28
2019-05-09T16:58:09.106Z,90.35
2019-05-09T17:00:41.396Z,89.77
2019-05-09T17:03:09.999Z,91.74
2019-05-09T17:05:38.807Z,91.29
2019-05-09T17:08:08.296Z,92.54
2019-05-09T17:10:37.254Z,92.63
2019-05-09T17:13:07.805Z,93.33
2019-05-09T17:15:38.758Z,94.93
2019-05-09T17:18:09.747Z,95.46
2019-05-09T17:21:15.027Z,98.88
2019-05-09T17:23:33.357Z,97.81
2019-05-09T17:26:02.059Z,97.69
2019-05-09T17:28:30.644Z,99.04
2019-05-09T17:30:59.868Z,98.47
2019-05-09T17:33:28.916Z,98.45
2019-05-09T17:35:57.914Z,97.83
2019-05-09T17:38:27.915Z,98.23
2019-05-09T17:40:57.673Z,98.73
2019-05-09T17:43:27.883Z,99.87
2019-05-09T17:45:58.498Z,98.79
2019-05-09T17:48:28.477Z,98.33
2019-05-09T17:50:57.988Z,99.53
2019-05-09T17:53:29.361Z,100.00
2019-05-09T17:55:58.586Z,100.00
2019-05-09T17:58:33.126Z,100.00
2019-05-09T18:00:58.210Z,100.00
2019-05-09T18:03:29.100Z,100.00
2019-05-09T18:05:57.868Z,100.00
2019-05-09T18:08:28.404Z,100.00
2019-05-09T18:10:58.276Z,100.00
2019-05-09T18:13:29.575Z,99.41
2019-05-09T18:15:57.788Z,100.00
2019-05-09T18:18:28.369Z,100.00
2019-05-09T18:20:58.040Z,99.75
2019-05-09T18:23:28.355Z,100.00
2019-05-09T18:25:58.577Z,100.00
2019-05-09T18:28:29.301Z,100.00
2019-05-09T18:30:58.495Z,100.00
2019-05-09T18:33:52.671Z,100.00
2019-05-09T18:36:21.557Z,100.00
2019-05-09T18:38:50.064Z,100.00
2019-05-09T18:41:19.440Z,100.00
2019-05-09T18:43:48.136Z,100.00
2019-05-09T18:46:17.617Z,100.00
2019-05-09T18:48:47.098Z,100.00
2019-05-09T18:51:16.042Z,100.00
2019-05-09T18:53:44.803Z,100.00
2019-05-09T18:56:13.694Z,100.00
2019-05-09T18:58:42.097Z,100.00
2019-05-09T19:01:10.902Z,100.00
2019-05-09T19:03:39.698Z,100.00
2019-05-09T19:06:08.595Z,100.00
2019-05-09T19:08:37.398Z,100.00
2019-05-09T19:11:06.198Z,100.00
2019-05-09T19:13:34.905Z,100.00
2019-05-09T19:16:32.088Z,100.00
2019-05-09T19:19:11.654Z,100.00
2019-05-09T19:21:48.496Z,100.00
2019-05-09T19:24:17.107Z,100.00
2019-05-09T19:26:46.101Z,100.00
2019-05-09T19:29:14.721Z,100.00
2019-05-09T19:31:43.413Z,100.00
2019-05-09T19:34:12.318Z,100.00
2019-05-09T19:36:40.916Z,100.00
2019-05-09T19:39:09.728Z,100.00
2019-05-09T19:41:38.610Z,100.00
2019-05-09T19:44:08.129Z,100.00
2019-05-09T19:46:36.723Z,100.00
2019-05-09T19:49:05.590Z,100.00
2019-05-09T19:51:34.243Z,100.00
2019-05-09T19:54:03.628Z,100.00
2019-05-09T19:56:32.615Z,100.00
2019-05-09T19:59:02.398Z,100.00
2019-05-09T20:01:31.303Z,100.00
2019-05-09T20:04:00.360Z,100.00
2019-05-09T20:06:30.058Z,100.00
2019-05-09T20:08:59.275Z,100.00
2019-05-09T20:11:49.965Z,100.00
2019-05-09T20:14:25.073Z,100.00
2019-05-09T20:16:55.810Z,100.00
2019-05-09T20:19:24.933Z,100.00
2019-05-09T20:21:53.937Z,100.00
2019-05-09T20:24:23.041Z,100.00
2019-05-09T20:26:51.945Z,100.00
2019-05-09T20:29:20.575Z,100.00
2019-05-09T20:31:49.397Z,100.00
2019-05-09T20:34:18.741Z,100.00
2019-05-09T20:36:47.873Z,100.00
2019-05-09T20:39:16.735Z,100.00
2019-05-09T20:41:45.444Z,100.00
2019-05-09T20:44:14.043Z,100.00
2019-05-09T20:46:42.627Z,100.00
2019-05-09T20:49:11.546Z,100.00
2019-05-09T20:51:40.145Z,100.00
2019-05-09T20:54:20.619Z,100.00
2019-05-09T20:56:39.285Z,100.00
2019-05-09T20:59:07.967Z,100.00
2019-05-09T21:01:36.608Z,100.00
2019-05-09T21:04:05.099Z,100.00
2019-05-09T21:06:34.494Z,100.00
2019-05-09T21:09:05.340Z,100.00
2019-05-09T21:11:34.143Z,100.00
2019-05-09T21:14:03.462Z,100.00
2019-05-09T21:16:32.470Z,100.00
2019-05-09T21:19:01.167Z,100.00
2019-05-09T21:21:29.882Z,100.00
2019-05-09T21:23:58.557Z,100.00
2019-05-09T21:26:27.283Z,100.00
2019-05-09T21:28:55.965Z,100.00
2019-05-09T21:31:24.472Z,100.00
2019-05-09T21:33:53.006Z,100.00
2019-05-09T21:36:21.849Z,100.00
2019-05-09T21:38:50.524Z,100.00
2019-05-09T21:41:19.147Z,100.00
2019-05-09T21:43:47.840Z,100.00
2019-05-09T21:46:16.323Z,100.00
2019-05-09T21:48:45.010Z,100.00
2019-05-09T21:51:13.601Z,100.00
2019-05-09T21:53:42.389Z,100.00
2019-05-09T21:56:10.984Z,100.00
2019-05-09T21:58:39.682Z,100.00
2019-05-09T22:01:12.663Z,100.00
2019-05-09T22:03:41.340Z,100.00
2019-05-09T22:06:10.065Z,100.00
2019-05-09T22:08:38.747Z,100.00
2019-05-09T22:11:07.450Z,100.00
2019-05-09T22:13:36.147Z,100.00
2019-05-09T22:16:04.822Z,100.00
2019-05-09T22:18:33.402Z,100.00
2019-05-09T22:21:01.993Z,100.00
2019-05-09T22:23:30.682Z,100.00
2019-05-09T22:25:59.459Z,100.00
2019-05-09T22:28:28.028Z,100.00
2019-05-09T22:30:56.599Z,100.00
2019-05-09T22:33:25.195Z,100.00
2019-05-09T22:35:53.870Z,100.00
2019-05-09T22:38:22.555Z,100.00
2019-05-09T22:40:51.156Z,100.00
2019-05-09T22:43:19.631Z,100.00
2019-05-09T22:45:48.208Z,100.00
2019-05-09T22:48:16.870Z,100.00
2019-05-09T22:50:45.452Z,100.00
2019-05-09T22:53:14.035Z,100.00
2019-05-09T22:55:42.814Z,100.00
2019-05-09T22:58:11.444Z,100.00
2019-05-09T23:00:39.992Z,100.00
2019-05-09T23:03:08.682Z,100.00
2019-05-09T23:05:37.419Z,100.00
2019-05-09T23:08:06.066Z,100.00
2019-05-09T23:10:34.760Z,100.00
2019-05-09T23:13:03.368Z,100.00
2019-05-09T23:15:32.364Z,100.00
2019-05-09T23:18:01.547Z,100.00
2019-05-09T23:20:47.939Z,100.00
2019-05-09T23:23:36.051Z,100.00
2019-05-09T23:26:05.078Z,100.00
2019-05-09T23:28:33.992Z,100.00
2019-05-09T23:31:06.215Z,100.00
2019-05-09T23:33:38.007Z,100.00
2019-05-09T23:36:07.023Z,100.00
2019-05-09T23:38:55.526Z,100.00
2019-05-09T23:41:24.546Z,100.00
2019-05-09T23:43:53.867Z,100.00
2019-05-09T23:46:22.639Z,100.00
2019-05-09T23:48:51.556Z,100.00
2019-05-09T23:51:20.411Z,100.00
2019-05-09T23:53:54.789Z,100.00
2019-05-09T23:56:41.360Z,100.00
2019-05-09T23:59:27.737Z,100.00
